Time;durP1;ratioP1;P1;durP2;ratioP2;P2;SDS_P1;SDS_P2;PMS_P1;PMS_P2;Temp;Humidity;BMP_temperature;BMP_pressure;BME280_temperature;BME280_humidity;BME280_pressure;Samples;Min_cycle;Max_cycle;Signal;HPM_P1;HPM_P2
2022/04/04 00:01:51;;;;;;;5.20;4.80;;;;;;;;;;5117558;28;20525;-74
2022/04/04 00:04:20;;;;;;;4.33;3.93;;;;;;;;;;5117427;28;20522;-74
2022/04/04 00:06:48;;;;;;;6.60;4.43;;;;;;;;;;5113763;28;20531;-74
2022/04/04 00:09:17;;;;;;;7.50;4.67;;;;;;;;;;5118154;28;20447;-74
2022/04/04 00:11:45;;;;;;;5.53;4.87;;;;;;;;;;5120913;28;20481;-74
2022/04/04 00:14:13;;;;;;;6.57;5.13;;;;;;;;;;5121261;28;20450;-74
2022/04/04 00:16:42;;;;;;;5.87;4.70;;;;;;;;;;5120630;28;20490;-74
2022/04/04 00:19:11;;;;;;;6.53;4.00;;;;;;;;;;5121095;28;20537;-74
2022/04/04 00:21:39;;;;;;;6.13;4.67;;;;;;;;;;5120813;28;20470;-74
2022/04/04 00:24:07;;;;;;;4.47;3.90;;;;;;;;;;5113208;28;21003;-74
2022/04/04 00:26:36;;;;;;;6.13;4.20;;;;;;;;;;5112387;28;20996;-74
2022/04/04 00:29:04;;;;;;;5.53;4.13;;;;;;;;;;5120826;28;20474;-74
2022/04/04 00:31:32;;;;;;;6.80;4.30;;;;;;;;;;5121155;28;20453;-74
2022/04/04 00:34:01;;;;;;;5.83;4.13;;;;;;;;;;5120592;28;20518;-74
2022/04/04 00:36:29;;;;;;;5.47;4.30;;;;;;;;;;5120863;28;20502;-74
2022/04/04 00:38:57;;;;;;;10.50;4.63;;;;;;;;;;5120676;28;20478;-74
2022/04/04 00:41:25;;;;;;;4.23;3.73;;;;;;;;;;5120687;28;20481;-74
2022/04/04 00:43:55;;;;;;;6.40;4.73;;;;;;;;;;5120924;28;20506;-73
2022/04/04 00:46:23;;;;;;;6.23;4.07;;;;;;;;;;5120448;28;20505;-74
2022/04/04 00:48:51;;;;;;;5.23;4.20;;;;;;;;;;5120799;28;20451;-74
2022/04/04 00:51:19;;;;;;;8.27;4.70;;;;;;;;;;5120336;27;20537;-74
2022/04/04 00:53:47;;;;;;;6.97;4.10;;;;;;;;;;5120645;28;20475;-74
2022/04/04 00:56:15;;;;;;;6.67;4.27;;;;;;;;;;5120148;28;20546;-74
2022/04/04 00:58:43;;;;;;;4.43;4.03;;;;;;;;;;5120705;28;20486;-74
2022/04/04 01:01:12;;;;;;;4.67;4.13;;;;;;;;;;5120137;28;20498;-74
2022/04/04 01:03:41;;;;;;;4.90;4.10;;;;;;;;;;5120098;28;20914;-74
2022/04/04 01:06:09;;;;;;;7.70;4.00;;;;;;;;;;5120264;28;20565;-74
2022/04/04 01:08:37;;;;;;;5.17;4.23;;;;;;;;;;5120059;28;20530;-74
2022/04/04 01:11:06;;;;;;;6.50;4.83;;;;;;;;;;5120132;28;20474;-74
2022/04/04 01:13:34;;;;;;;5.87;4.67;;;;;;;;;;5119826;28;20809;-74
2022/04/04 01:16:02;;;;;;;5.30;3.73;;;;;;;;;;5119762;28;20467;-74
2022/04/04 01:18:31;;;;;;;4.77;4.27;;;;;;;;;;5119905;28;20473;-74
2022/04/04 01:20:59;;;;;;;4.40;3.53;;;;;;;;;;5118617;28;20954;-74
2022/04/04 01:23:35;;;;;;;5.47;4.33;;;;;;;;;;5119802;28;20504;-74
2022/04/04 01:26:04;;;;;;;7.30;3.80;;;;;;;;;;5111510;28;20461;-74
2022/04/04 01:28:32;;;;;;;5.83;4.03;;;;;;;;;;5120100;28;20471;-74
2022/04/04 01:31:00;;;;;;;5.97;4.37;;;;;;;;;;5119444;27;20817;-74
2022/04/04 01:33:28;;;;;;;6.57;4.57;;;;;;;;;;5119347;28;20447;-74
2022/04/04 01:35:57;;;;;;;4.60;4.10;;;;;;;;;;5115740;28;20499;-74
2022/04/04 01:38:25;;;;;;;7.13;3.70;;;;;;;;;;5119310;28;20475;-74
2022/04/04 01:40:53;;;;;;;5.57;4.03;;;;;;;;;;5119164;28;20470;-74
2022/04/04 01:43:23;;;;;;;5.17;3.70;;;;;;;;;;5118960;28;20442;-74
2022/04/04 01:48:48;;;;;;;5.03;4.23;;;;;;;;;;5076158;28;20468;-74
2022/04/04 01:51:16;;;;;;;6.33;4.70;;;;;;;;;;5109234;28;20474;-74
2022/04/04 01:53:45;;;;;;;5.63;4.17;;;;;;;;;;5119004;28;20885;-74
2022/04/04 01:56:13;;;;;;;4.90;3.97;;;;;;;;;;5118444;28;20486;-74
2022/04/04 01:58:42;;;;;;;6.40;4.97;;;;;;;;;;5119540;28;20481;-74
2022/04/04 02:01:11;;;;;;;4.90;4.20;;;;;;;;;;5118643;28;20541;-74
2022/04/04 02:03:40;;;;;;;7.40;4.47;;;;;;;;;;5118650;28;20439;-73
2022/04/04 02:06:08;;;;;;;5.77;4.87;;;;;;;;;;5118848;28;20498;-74
2022/04/04 02:08:36;;;;;;;5.77;3.93;;;;;;;;;;5118777;28;20483;-74
2022/04/04 02:11:04;;;;;;;8.90;4.47;;;;;;;;;;5118390;28;21013;-73
2022/04/04 02:13:32;;;;;;;6.87;4.40;;;;;;;;;;5110596;28;20962;-74
2022/04/04 02:16:02;;;;;;;5.37;4.30;;;;;;;;;;5118799;28;20545;-74
2022/04/04 02:18:31;;;;;;;6.73;4.80;;;;;;;;;;5118706;28;20445;-74
2022/04/04 02:21:00;;;;;;;6.63;4.40;;;;;;;;;;5118640;28;20438;-73
2022/04/04 02:23:28;;;;;;;4.70;4.20;;;;;;;;;;5118251;28;20446;-74
2022/04/04 02:25:56;;;;;;;5.00;4.20;;;;;;;;;;5112922;28;20506;-74
2022/04/04 02:28:24;;;;;;;6.63;5.23;;;;;;;;;;5118687;28;20443;-74
2022/04/04 02:30:52;;;;;;;5.27;4.00;;;;;;;;;;5118496;28;20980;-73
2022/04/04 02:33:23;;;;;;;8.40;4.93;;;;;;;;;;5117988;28;20807;-74
2022/04/04 02:35:51;;;;;;;5.13;4.40;;;;;;;;;;5118375;28;20516;-74
2022/04/04 02:38:20;;;;;;;5.33;4.37;;;;;;;;;;5118288;28;20529;-74
2022/04/04 02:40:48;;;;;;;4.30;3.80;;;;;;;;;;5118149;28;20474;-74
2022/04/04 02:43:17;;;;;;;5.77;4.50;;;;;;;;;;5118427;28;20489;-74
2022/04/04 02:45:46;;;;;;;5.47;3.77;;;;;;;;;;5117837;28;20910;-74
2022/04/04 02:48:15;;;;;;;8.37;4.27;;;;;;;;;;5118651;28;20447;-74
2022/04/04 02:50:44;;;;;;;4.87;4.43;;;;;;;;;;5118947;28;20455;-74
2022/04/04 02:53:12;;;;;;;4.77;4.10;;;;;;;;;;5119106;28;20576;-74
2022/04/04 02:58:27;;;;;;;4.70;4.27;;;;;;;;;;5118311;28;20446;-74
2022/04/04 03:00:55;;;;;;;9.80;4.17;;;;;;;;;;5115768;28;20559;-74
2022/04/04 03:03:23;;;;;;;4.17;3.40;;;;;;;;;;5118367;28;20446;-74
2022/04/04 03:05:53;;;;;;;6.47;4.10;;;;;;;;;;5117948;28;20491;-74
2022/04/04 03:08:21;;;;;;;5.23;4.33;;;;;;;;;;5118216;28;20534;-74
2022/04/04 03:10:49;;;;;;;4.43;3.77;;;;;;;;;;5117521;28;20533;-74
2022/04/04 03:13:17;;;;;;;5.20;4.13;;;;;;;;;;5118064;28;20474;-74
2022/04/04 03:15:46;;;;;;;5.67;4.30;;;;;;;;;;5117449;28;20965;-74
2022/04/04 03:18:14;;;;;;;5.80;4.80;;;;;;;;;;5117758;28;20884;-74
2022/04/04 03:20:42;;;;;;;7.60;4.97;;;;;;;;;;5114778;28;20534;-74
2022/04/04 03:23:11;;;;;;;5.23;4.40;;;;;;;;;;5117786;28;20486;-74
2022/04/04 03:25:39;;;;;;;5.73;4.50;;;;;;;;;;5109722;28;20506;-74
2022/04/04 03:28:07;;;;;;;5.53;4.57;;;;;;;;;;5112351;28;20479;-74
2022/04/04 03:30:35;;;;;;;7.57;4.80;;;;;;;;;;5117965;28;20537;-74
2022/04/04 03:33:03;;;;;;;4.90;4.17;;;;;;;;;;5116917;28;20603;-75
2022/04/04 03:35:33;;;;;;;4.43;4.03;;;;;;;;;;5117582;28;20490;-74
2022/04/04 03:38:02;;;;;;;6.73;5.17;;;;;;;;;;5117347;28;20458;-73
2022/04/04 03:40:32;;;;;;;5.37;4.67;;;;;;;;;;5117425;28;20489;-74
2022/04/04 03:43:00;;;;;;;11.23;5.20;;;;;;;;;;5117539;28;20529;-73
2022/04/04 03:45:29;;;;;;;9.20;4.70;;;;;;;;;;5120777;28;20579;-74
2022/04/04 03:47:57;;;;;;;7.13;4.70;;;;;;;;;;5118913;28;20461;-74
2022/04/04 03:50:26;;;;;;;6.03;4.47;;;;;;;;;;5121698;28;20481;-74
2022/04/04 03:52:55;;;;;;;5.40;4.10;;;;;;;;;;5121274;28;20474;-74
2022/04/04 03:55:25;;;;;;;5.83;4.70;;;;;;;;;;5115186;28;20505;-74
2022/04/04 03:57:54;;;;;;;5.83;4.40;;;;;;;;;;5121650;28;20920;-74
2022/04/04 04:00:23;;;;;;;6.50;4.80;;;;;;;;;;5121087;28;20501;-74
2022/04/04 04:02:52;;;;;;;4.87;4.33;;;;;;;;;;5121705;28;20479;-71
2022/04/04 04:05:20;;;;;;;6.00;4.47;;;;;;;;;;5121238;27;20521;-70
2022/04/04 04:07:49;;;;;;;7.30;4.93;;;;;;;;;;5121464;28;20533;-71
2022/04/04 04:10:17;;;;;;;6.47;5.33;;;;;;;;;;5119324;27;20979;-70
2022/04/04 04:12:45;;;;;;;5.70;4.97;;;;;;;;;;5115367;28;20490;-70
2022/04/04 04:15:16;;;;;;;5.73;5.13;;;;;;;;;;5120981;28;20474;-70
2022/04/04 04:17:44;;;;;;;5.33;4.57;;;;;;;;;;5121321;28;20471;-70
2022/04/04 04:20:22;;;;;;;7.03;4.77;;;;;;;;;;5120630;28;20475;-70
2022/04/04 04:22:52;;;;;;;5.83;4.70;;;;;;;;;;5120276;28;20945;-70
2022/04/04 04:25:20;;;;;;;6.80;5.50;;;;;;;;;;5116860;28;20508;-71
2022/04/04 04:27:48;;;;;;;5.80;4.90;;;;;;;;;;5120678;28;20450;-67
2022/04/04 04:30:18;;;;;;;8.03;5.57;;;;;;;;;;5120007;28;20494;-67
2022/04/04 04:32:48;;;;;;;5.53;5.03;;;;;;;;;;5120120;28;20439;-65
2022/04/04 04:35:17;;;;;;;6.73;4.73;;;;;;;;;;5120116;28;20443;-64
2022/04/04 04:37:45;;;;;;;8.10;5.87;;;;;;;;;;5117757;28;20481;-68
2022/04/04 04:40:14;;;;;;;6.33;5.10;;;;;;;;;;5117261;27;20482;-66
2022/04/04 04:42:44;;;;;;;6.87;5.53;;;;;;;;;;5120165;27;20442;-66
2022/04/04 04:45:13;;;;;;;5.87;5.27;;;;;;;;;;5122824;27;20495;-66
2022/04/04 04:47:42;;;;;;;7.80;5.50;;;;;;;;;;5120185;28;20442;-67
2022/04/04 04:50:12;;;;;;;7.97;5.40;;;;;;;;;;5120764;28;20450;-67
2022/04/04 04:52:41;;;;;;;6.70;5.20;;;;;;;;;;5123110;27;22350;-66
2022/04/04 04:55:10;;;;;;;5.63;4.40;;;;;;;;;;5125448;27;20450;-67
2022/04/04 04:57:38;;;;;;;7.33;6.50;;;;;;;;;;5117876;27;20439;-66
2022/04/04 05:00:07;;;;;;;9.30;6.47;;;;;;;;;;5125640;27;20505;-66
2022/04/04 05:02:37;;;;;;;10.60;6.23;;;;;;;;;;5127316;27;20451;-66
2022/04/04 05:05:06;;;;;;;8.50;6.10;;;;;;;;;;5131669;27;20545;-66
2022/04/04 05:07:34;;;;;;;10.93;5.90;;;;;;;;;;5122231;27;20488;-66
2022/04/04 05:10:03;;;;;;;9.33;6.00;;;;;;;;;;5130120;27;21047;-75
2022/04/04 05:12:32;;;;;;;10.97;6.00;;;;;;;;;;5121108;27;20508;-75
2022/04/04 05:15:00;;;;;;;8.57;5.50;;;;;;;;;;5115630;28;20447;-75
2022/04/04 05:17:28;;;;;;;7.40;5.43;;;;;;;;;;5122578;27;20514;-76
2022/04/04 05:19:58;;;;;;;10.00;5.43;;;;;;;;;;5118913;28;20594;-75
2022/04/04 05:22:28;;;;;;;6.73;5.53;;;;;;;;;;5113072;27;20552;-76
2022/04/04 05:24:56;;;;;;;12.63;6.17;;;;;;;;;;5108157;27;20458;-75
2022/04/04 05:27:24;;;;;;;6.57;5.07;;;;;;;;;;5113603;27;20911;-75
2022/04/04 05:29:52;;;;;;;9.50;5.07;;;;;;;;;;5129249;27;20445;-74
2022/04/04 05:32:21;;;;;;;6.50;5.43;;;;;;;;;;5120047;27;20473;-73
2022/04/04 05:34:49;;;;;;;8.57;5.50;;;;;;;;;;5125617;27;20469;-73
2022/04/04 05:37:17;;;;;;;8.97;5.97;;;;;;;;;;5125155;27;20493;-74
2022/04/04 05:39:46;;;;;;;9.80;6.13;;;;;;;;;;5121858;27;20500;-74
2022/04/04 05:42:16;;;;;;;8.63;5.37;;;;;;;;;;5121056;27;20478;-74
2022/04/04 05:44:44;;;;;;;7.00;5.63;;;;;;;;;;5121733;27;20530;-74
2022/04/04 05:47:14;;;;;;;7.27;5.67;;;;;;;;;;5125442;27;20565;-74
2022/04/04 05:49:42;;;;;;;7.43;5.80;;;;;;;;;;5108574;27;20448;-74
2022/04/04 05:52:10;;;;;;;7.50;5.60;;;;;;;;;;5108727;27;20781;-74
2022/04/04 05:54:53;;;;;;;8.73;5.67;;;;;;;;;;5117513;27;20450;-74
2022/04/04 05:57:24;;;;;;;11.03;6.33;;;;;;;;;;5115831;27;20807;-74
2022/04/04 05:59:52;;;;;;;7.90;5.97;;;;;;;;;;5118549;27;20524;-75
2022/04/04 06:02:20;;;;;;;8.33;5.57;;;;;;;;;;5116525;28;20538;-74
2022/04/04 06:04:49;;;;;;;10.00;5.77;;;;;;;;;;5121969;27;20470;-75
2022/04/04 06:07:17;;;;;;;9.17;6.40;;;;;;;;;;5125414;27;20522;-74
2022/04/04 06:09:45;;;;;;;10.13;6.27;;;;;;;;;;5130760;27;20868;-75
2022/04/04 06:12:13;;;;;;;8.50;5.57;;;;;;;;;;5125907;27;20446;-75
2022/04/04 06:14:43;;;;;;;7.63;5.87;;;;;;;;;;5124601;27;20478;-75
2022/04/04 06:17:11;;;;;;;7.87;5.73;;;;;;;;;;5123186;27;21028;-75
2022/04/04 06:19:39;;;;;;;8.37;5.73;;;;;;;;;;5125927;27;20457;-75
2022/04/04 06:22:07;;;;;;;10.77;6.27;;;;;;;;;;5130636;27;20446;-76
2022/04/04 06:24:35;;;;;;;9.10;6.47;;;;;;;;;;5118407;27;20486;-75
2022/04/04 06:27:03;;;;;;;7.97;6.30;;;;;;;;;;5129448;27;20573;-74
2022/04/04 06:29:31;;;;;;;11.07;6.63;;;;;;;;;;5123810;27;20530;-75
2022/04/04 06:32:01;;;;;;;7.53;6.60;;;;;;;;;;5118708;28;20471;-74
2022/04/04 06:34:29;;;;;;;10.47;6.33;;;;;;;;;;5126453;27;20446;-74
2022/04/04 06:36:57;;;;;;;11.50;7.37;;;;;;;;;;5134927;27;21045;-74
2022/04/04 06:39:25;;;;;;;10.83;7.40;;;;;;;;;;5133616;27;20469;-75
2022/04/04 06:41:53;;;;;;;9.67;6.63;;;;;;;;;;5123477;27;20471;-75
2022/04/04 06:44:21;;;;;;;11.50;6.53;;;;;;;;;;5131947;27;20474;-75
2022/04/04 06:46:51;;;;;;;7.13;6.13;;;;;;;;;;5118064;27;20563;-74
2022/04/04 06:49:20;;;;;;;9.30;6.70;;;;;;;;;;5121599;27;20448;-74
2022/04/04 06:51:51;;;;;;;10.13;6.77;;;;;;;;;;5121116;27;20477;-75
2022/04/04 06:54:19;;;;;;;12.93;7.03;;;;;;;;;;5126178;27;20485;-74
2022/04/04 06:56:49;;;;;;;11.00;6.77;;;;;;;;;;5116945;28;20515;-75
2022/04/04 06:59:17;;;;;;;13.67;7.17;;;;;;;;;;5121223;27;20476;-72
2022/04/04 07:01:45;;;;;;;10.33;7.87;;;;;;;;;;5116487;28;20439;-72
2022/04/04 07:04:13;;;;;;;10.33;7.37;;;;;;;;;;5120796;27;20451;-72
2022/04/04 07:06:43;;;;;;;8.83;6.60;;;;;;;;;;5122478;27;20497;-73
2022/04/04 07:09:11;;;;;;;8.63;7.17;;;;;;;;;;5126086;27;20473;-72
2022/04/04 07:11:40;;;;;;;10.27;7.33;;;;;;;;;;5121648;27;20451;-74
2022/04/04 07:14:10;;;;;;;10.43;7.50;;;;;;;;;;5117037;28;20810;-73
2022/04/04 07:16:38;;;;;;;10.27;6.43;;;;;;;;;;5117173;28;21052;-73
2022/04/04 07:19:09;;;;;;;7.90;6.27;;;;;;;;;;5120398;27;20519;-73
2022/04/04 07:21:37;;;;;;;8.80;6.60;;;;;;;;;;5125360;27;20945;-73
2022/04/04 07:24:07;;;;;;;10.40;6.67;;;;;;;;;;5124826;27;20454;-72
2022/04/04 07:26:35;;;;;;;8.20;6.43;;;;;;;;;;5124777;27;20545;-71
2022/04/04 07:29:03;;;;;;;11.57;7.23;;;;;;;;;;5127152;27;20541;-69
2022/04/04 07:31:31;;;;;;;11.90;8.00;;;;;;;;;;5123667;27;20474;-73
2022/04/04 07:33:59;;;;;;;13.37;7.80;;;;;;;;;;5115085;28;20537;-72
2022/04/04 07:36:27;;;;;;;11.00;7.97;;;;;;;;;;5122972;28;20493;-75
2022/04/04 07:38:55;;;;;;;11.90;7.10;;;;;;;;;;5122106;28;20996;-75
2022/04/04 07:41:25;;;;;;;11.07;8.33;;;;;;;;;;5119910;28;20477;-72
2022/04/04 07:43:53;;;;;;;15.10;7.93;;;;;;;;;;5134206;28;20975;-71
2022/04/04 07:46:21;;;;;;;10.90;7.63;;;;;;;;;;5117856;28;20510;-73
2022/04/04 07:48:50;;;;;;;11.07;7.83;;;;;;;;;;5128868;28;20509;-73
2022/04/04 07:51:19;;;;;;;12.40;7.70;;;;;;;;;;5122308;28;20446;-73
2022/04/04 07:53:47;;;;;;;12.47;8.87;;;;;;;;;;5106202;28;20903;-74
2022/04/04 07:56:15;;;;;;;10.03;7.90;;;;;;;;;;5127444;28;20542;-73
2022/04/04 07:58:45;;;;;;;11.47;8.17;;;;;;;;;;5122408;28;20485;-74
2022/04/04 08:01:13;;;;;;;14.43;7.47;;;;;;;;;;5126692;28;20508;-73
2022/04/04 08:03:45;;;;;;;9.33;7.47;;;;;;;;;;5116782;28;20519;-73
2022/04/04 08:06:13;;;;;;;10.70;7.40;;;;;;;;;;5123910;28;20501;-73
2022/04/04 08:08:41;;;;;;;10.17;7.33;;;;;;;;;;5119633;28;20483;-73
2022/04/04 08:11:11;;;;;;;10.90;7.10;;;;;;;;;;5116566;28;20443;-72
2022/04/04 08:13:44;;;;;;;9.67;6.97;;;;;;;;;;5123409;28;20506;-72
2022/04/04 08:16:13;;;;;;;10.27;7.03;;;;;;;;;;5116504;28;20895;-73
2022/04/04 08:18:41;;;;;;;11.77;8.17;;;;;;;;;;5117623;28;20512;-73
2022/04/04 08:21:09;;;;;;;10.43;7.70;;;;;;;;;;5123814;28;20489;-73
2022/04/04 08:23:37;;;;;;;12.00;7.40;;;;;;;;;;5117534;28;20454;-73
2022/04/04 08:26:06;;;;;;;8.87;6.77;;;;;;;;;;5121633;28;20473;-74
2022/04/04 08:28:34;;;;;;;10.20;6.57;;;;;;;;;;5118024;28;20520;-74
2022/04/04 08:31:02;;;;;;;9.83;7.40;;;;;;;;;;5130600;27;20449;-73
2022/04/04 08:33:31;;;;;;;13.17;7.00;;;;;;;;;;5129108;27;20533;-73
2022/04/04 08:36:00;;;;;;;9.97;7.83;;;;;;;;;;5114767;28;20466;-72
2022/04/04 08:38:29;;;;;;;12.00;8.27;;;;;;;;;;5135469;27;20470;-74
2022/04/04 08:40:59;;;;;;;11.97;8.00;;;;;;;;;;5119634;27;20446;-66
2022/04/04 08:43:28;;;;;;;15.93;8.50;;;;;;;;;;5123137;27;20509;-67
2022/04/04 08:45:56;;;;;;;10.53;7.77;;;;;;;;;;5117070;27;20532;-73
2022/04/04 08:48:25;;;;;;;10.80;7.20;;;;;;;;;;5110478;28;20471;-73
2022/04/04 08:50:55;;;;;;;12.90;7.80;;;;;;;;;;5115403;27;20534;-73
2022/04/04 08:53:23;;;;;;;11.23;8.27;;;;;;;;;;5114379;27;20795;-73
2022/04/04 08:55:51;;;;;;;13.50;7.33;;;;;;;;;;5116706;27;20491;-74
2022/04/04 08:58:19;;;;;;;12.97;7.93;;;;;;;;;;5109612;27;20475;-74
2022/04/04 09:00:48;;;;;;;10.07;8.00;;;;;;;;;;5109159;27;20880;-73
2022/04/04 09:03:20;;;;;;;10.17;7.20;;;;;;;;;;5112187;27;20443;-73
2022/04/04 09:05:52;;;;;;;12.70;7.30;;;;;;;;;;5104182;28;20501;-73
2022/04/04 09:08:26;;;;;;;13.07;8.33;;;;;;;;;;5112071;27;20474;-73
2022/04/04 09:10:56;;;;;;;10.83;7.73;;;;;;;;;;5114266;27;20451;-72
2022/04/04 09:13:24;;;;;;;9.87;6.60;;;;;;;;;;5116901;27;20498;-73
2022/04/04 09:15:56;;;;;;;7.23;6.03;;;;;;;;;;5112941;27;20504;-73
2022/04/04 09:18:45;;;;;;;12.53;6.43;;;;;;;;;;5117853;28;20476;-73
2022/04/04 09:21:14;;;;;;;12.33;6.97;;;;;;;;;;5114037;27;20545;-73
2022/04/04 09:23:57;;;;;;;9.83;6.50;;;;;;;;;;5129538;27;20208;-72
2022/04/04 09:26:30;;;;;;;9.43;5.43;;;;;;;;;;5115527;27;20226;-72
2022/04/04 09:28:59;;;;;;;8.57;6.83;;;;;;;;;;5118921;28;20517;-71
2022/04/04 09:31:27;;;;;;;8.90;5.93;;;;;;;;;;5119680;28;20478;-72
2022/04/04 09:33:59;;;;;;;9.00;5.83;;;;;;;;;;5115904;27;20538;-72
2022/04/04 09:36:28;;;;;;;8.50;6.73;;;;;;;;;;5101537;28;20491;-72
2022/04/04 09:39:02;;;;;;;9.00;6.33;;;;;;;;;;5109777;27;20481;-72
2022/04/04 09:41:30;;;;;;;7.83;6.57;;;;;;;;;;5116359;27;20225;-72
2022/04/04 09:43:59;;;;;;;9.40;7.30;;;;;;;;;;5104109;28;20292;-71
2022/04/04 09:46:31;;;;;;;13.03;7.57;;;;;;;;;;5109553;27;20220;-72
2022/04/04 09:49:03;;;;;;;11.03;7.40;;;;;;;;;;5108065;27;20217;-72
2022/04/04 09:51:38;;;;;;;15.87;7.43;;;;;;;;;;5110705;27;20201;-72
2022/04/04 09:54:09;;;;;;;13.00;6.87;;;;;;;;;;5112429;27;20325;-73
2022/04/04 09:56:37;;;;;;;11.27;7.30;;;;;;;;;;5103712;28;20221;-73
2022/04/04 09:59:05;;;;;;;14.80;7.20;;;;;;;;;;5112271;27;20261;-72
2022/04/04 10:01:34;;;;;;;7.63;6.70;;;;;;;;;;5110926;27;20354;-72
2022/04/04 10:04:03;;;;;;;10.77;6.27;;;;;;;;;;5104518;28;20237;-72
2022/04/04 10:06:32;;;;;;;7.63;5.80;;;;;;;;;;5102752;28;20504;-72
2022/04/04 10:09:00;;;;;;;9.90;6.40;;;;;;;;;;5106810;28;20474;-72
2022/04/04 10:11:30;;;;;;;10.33;5.57;;;;;;;;;;5112641;27;20482;-72
2022/04/04 10:13:58;;;;;;;9.17;6.33;;;;;;;;;;5103848;28;20854;-72
2022/04/04 10:16:26;;;;;;;9.53;5.93;;;;;;;;;;5111680;27;20230;-72
2022/04/04 10:18:56;;;;;;;6.97;6.10;;;;;;;;;;5110919;27;20469;-72
2022/04/04 10:21:26;;;;;;;9.77;6.30;;;;;;;;;;5109139;27;20466;-72
2022/04/04 10:23:55;;;;;;;7.67;6.10;;;;;;;;;;5104258;28;20478;-72
2022/04/04 10:26:26;;;;;;;7.30;5.50;;;;;;;;;;5116100;27;20875;-72
2022/04/04 10:29:07;;;;;;;7.00;6.10;;;;;;;;;;5112745;27;20357;-73
2022/04/04 10:31:42;;;;;;;9.53;5.47;;;;;;;;;;5111929;27;20291;-72
2022/04/04 10:34:11;;;;;;;10.53;6.43;;;;;;;;;;5123098;27;20234;-75
2022/04/04 10:36:53;;;;;;;8.83;6.07;;;;;;;;;;5121720;27;20304;-75
2022/04/04 10:39:31;;;;;;;8.50;6.20;;;;;;;;;;5110671;28;20380;-75
2022/04/04 10:41:59;;;;;;;6.97;5.90;;;;;;;;;;5125307;27;20636;-75
2022/04/04 10:44:49;;;;;;;6.50;5.60;;;;;;;;;;5122610;27;20284;-73
2022/04/04 10:47:21;;;;;;;9.23;6.87;;;;;;;;;;5118838;27;20254;-74
2022/04/04 10:49:49;;;;;;;8.10;6.03;;;;;;;;;;5117838;28;20274;-75
2022/04/04 10:52:18;;;;;;;9.33;6.20;;;;;;;;;;5120675;27;20283;-75
2022/04/04 10:54:46;;;;;;;6.47;5.87;;;;;;;;;;5128904;27;20227;-74
2022/04/04 10:57:16;;;;;;;6.00;5.40;;;;;;;;;;5108170;28;20248;-74
2022/04/04 10:59:46;;;;;;;6.87;4.87;;;;;;;;;;5123998;27;20311;-74
2022/04/04 11:02:18;;;;;;;6.60;5.63;;;;;;;;;;5117102;28;20236;-75
2022/04/04 11:07:41;;;;;;;9.83;6.90;;;;;;;;;;5109506;27;20258;-73
2022/04/04 11:10:10;;;;;;;8.17;6.30;;;;;;;;;;5104187;28;20217;-72
2022/04/04 11:12:57;;;;;;;8.50;7.13;;;;;;;;;;5101755;28;20471;-77
2022/04/04 11:15:40;;;;;;;8.37;6.10;;;;;;;;;;5111190;28;20710;-74
2022/04/04 11:18:10;;;;;;;6.80;5.57;;;;;;;;;;5115291;27;20453;-77
2022/04/04 11:20:46;;;;;;;6.50;5.80;;;;;;;;;;5118388;28;20492;-79
2022/04/04 11:23:14;;;;;;;8.73;6.17;;;;;;;;;;5121262;27;20892;-79
2022/04/04 11:25:52;;;;;;;7.60;6.23;;;;;;;;;;5119846;27;20253;-78
2022/04/04 11:28:22;;;;;;;6.43;5.10;;;;;;;;;;5107832;28;20231;-79
2022/04/04 11:30:52;;;;;;;6.80;5.70;;;;;;;;;;5105813;28;20248;-79
2022/04/04 11:33:23;;;;;;;8.77;5.13;;;;;;;;;;5116206;28;20200;-80
2022/04/04 11:35:52;;;;;;;7.13;6.13;;;;;;;;;;5126155;28;20216;-78
2022/04/04 11:38:20;;;;;;;7.47;6.37;;;;;;;;;;5117287;28;20203;-79
2022/04/04 11:40:53;;;;;;;7.80;6.30;;;;;;;;;;5125230;28;20275;-79
2022/04/04 11:43:24;;;;;;;7.43;6.03;;;;;;;;;;5109430;28;20644;-79
2022/04/04 11:45:54;;;;;;;7.43;6.20;;;;;;;;;;5125730;28;20220;-77
2022/04/04 11:48:28;;;;;;;7.80;5.50;;;;;;;;;;5132697;28;20204;-78
2022/04/04 11:50:57;;;;;;;7.53;5.70;;;;;;;;;;5120023;28;22044;-77
2022/04/04 11:53:27;;;;;;;7.57;5.87;;;;;;;;;;5104322;28;20205;-78
2022/04/04 11:56:02;;;;;;;8.50;6.03;;;;;;;;;;5104097;28;20259;-77
2022/04/04 11:58:32;;;;;;;6.37;5.57;;;;;;;;;;5110090;28;20201;-79
2022/04/04 12:01:04;;;;;;;9.07;6.60;;;;;;;;;;5114554;28;20229;-78
2022/04/04 12:03:40;;;;;;;10.70;6.53;;;;;;;;;;5124899;28;20290;-78
2022/04/04 12:06:08;;;;;;;7.77;5.93;;;;;;;;;;5120481;27;20227;-79
2022/04/04 12:08:42;;;;;;;7.03;5.33;;;;;;;;;;5125900;27;20201;-71
2022/04/04 12:11:10;;;;;;;7.40;5.57;;;;;;;;;;5116563;27;20977;-71
2022/04/04 12:13:49;;;;;;;9.67;6.87;;;;;;;;;;5111782;27;20201;-72
2022/04/04 12:16:17;;;;;;;7.50;5.73;;;;;;;;;;5119717;27;20247;-72
2022/04/04 12:18:53;;;;;;;11.10;6.90;;;;;;;;;;5115905;27;20242;-70
2022/04/04 12:21:21;;;;;;;10.10;6.83;;;;;;;;;;5114417;27;20223;-72
2022/04/04 12:26:35;;;;;;;9.17;6.23;;;;;;;;;;5105613;28;20312;-71
2022/04/04 12:29:10;;;;;;;7.30;5.70;;;;;;;;;;5110922;27;20439;-70
2022/04/04 12:31:38;;;;;;;9.97;6.30;;;;;;;;;;5112639;27;20910;-71
2022/04/04 12:34:09;;;;;;;6.87;5.10;;;;;;;;;;5112027;27;20962;-71
2022/04/04 12:36:38;;;;;;;10.17;6.67;;;;;;;;;;5118040;27;20494;-71
2022/04/04 12:39:07;;;;;;;8.90;5.83;;;;;;;;;;5119765;27;20449;-71
2022/04/04 12:41:41;;;;;;;7.57;5.53;;;;;;;;;;5119107;27;20271;-73
2022/04/04 12:44:10;;;;;;;7.50;5.63;;;;;;;;;;5118323;28;20204;-70
2022/04/04 12:46:38;;;;;;;7.60;5.70;;;;;;;;;;5121800;27;20240;-71
2022/04/04 12:49:15;;;;;;;9.80;6.60;;;;;;;;;;5124591;27;20246;-71
2022/04/04 12:51:51;;;;;;;8.20;6.80;;;;;;;;;;5116949;28;20252;-72
2022/04/04 12:54:24;;;;;;;8.80;6.97;;;;;;;;;;5118152;28;20201;-72
2022/04/04 12:56:52;;;;;;;10.53;6.50;;;;;;;;;;5118922;28;20741;-71
2022/04/04 12:59:22;;;;;;;8.60;6.63;;;;;;;;;;5119430;28;20232;-71
2022/04/04 13:02:07;;;;;;;8.13;6.40;;;;;;;;;;5119604;28;20225;-71
2022/04/04 13:04:37;;;;;;;10.50;6.30;;;;;;;;;;5118928;28;20226;-72
2022/04/04 13:07:17;;;;;;;7.93;5.83;;;;;;;;;;5117927;28;20258;-73
2022/04/04 13:09:52;;;;;;;10.00;6.87;;;;;;;;;;5118222;28;20204;-74
2022/04/04 13:12:27;;;;;;;8.67;6.50;;;;;;;;;;5119124;28;20196;-73
2022/04/04 13:14:55;;;;;;;8.33;6.93;;;;;;;;;;5119151;28;20779;-73
2022/04/04 13:17:33;;;;;;;9.50;6.63;;;;;;;;;;5118011;27;20276;-73
2022/04/04 13:20:04;;;;;;;6.10;5.50;;;;;;;;;;5119427;28;20211;-73
2022/04/04 13:22:32;;;;;;;8.70;6.43;;;;;;;;;;5117888;28;20216;-73
2022/04/04 13:25:00;;;;;;;8.07;6.97;;;;;;;;;;5116006;28;20239;-73
2022/04/04 13:27:28;;;;;;;8.87;6.43;;;;;;;;;;5117408;28;20710;-74
2022/04/04 13:29:56;;;;;;;8.03;6.40;;;;;;;;;;5117302;28;20239;-73
2022/04/04 13:32:24;;;;;;;9.43;6.80;;;;;;;;;;5109751;28;20292;-73
2022/04/04 13:34:52;;;;;;;7.00;6.10;;;;;;;;;;5118006;28;20284;-73
2022/04/04 13:37:22;;;;;;;10.10;6.70;;;;;;;;;;5118961;28;20260;-73
2022/04/04 13:39:50;;;;;;;8.50;5.97;;;;;;;;;;5119181;28;20224;-74
2022/04/04 13:42:18;;;;;;;8.33;6.20;;;;;;;;;;5119031;28;20228;-74
2022/04/04 13:44:47;;;;;;;10.13;7.00;;;;;;;;;;5118985;28;20196;-74
2022/04/04 13:47:15;;;;;;;10.80;6.00;;;;;;;;;;5119566;28;20221;-75
2022/04/04 13:49:43;;;;;;;12.33;6.47;;;;;;;;;;5119293;28;20280;-75
2022/04/04 13:52:13;;;;;;;8.27;6.73;;;;;;;;;;5118753;28;20303;-74
2022/04/04 13:54:43;;;;;;;9.87;6.20;;;;;;;;;;5118371;28;20197;-73
2022/04/04 13:57:11;;;;;;;8.27;6.00;;;;;;;;;;5115939;28;20259;-74
2022/04/04 13:59:40;;;;;;;6.70;6.00;;;;;;;;;;5110772;28;20252;-72
2022/04/04 14:02:08;;;;;;;7.83;6.33;;;;;;;;;;5118750;28;20225;-71
2022/04/04 14:04:37;;;;;;;7.97;6.57;;;;;;;;;;5118685;28;20228;-73
2022/04/04 14:07:05;;;;;;;7.43;6.40;;;;;;;;;;5117713;28;20228;-73
2022/04/04 14:09:33;;;;;;;7.73;5.77;;;;;;;;;;5118473;28;20208;-73
2022/04/04 14:12:03;;;;;;;8.23;6.20;;;;;;;;;;5118911;28;20267;-73
2022/04/04 14:14:31;;;;;;;8.20;6.60;;;;;;;;;;5118409;28;20284;-73
2022/04/04 14:17:00;;;;;;;9.13;6.70;;;;;;;;;;5118252;28;20751;-73
2022/04/04 14:19:29;;;;;;;7.37;6.37;;;;;;;;;;5118402;28;20258;-73
2022/04/04 14:21:57;;;;;;;8.00;6.43;;;;;;;;;;5118490;28;20197;-73
2022/04/04 14:24:25;;;;;;;9.17;6.90;;;;;;;;;;5117862;28;20327;-73
2022/04/04 14:26:53;;;;;;;8.43;7.03;;;;;;;;;;5116207;28;20288;-73
2022/04/04 14:29:22;;;;;;;9.63;7.33;;;;;;;;;;5118060;28;20235;-73
2022/04/04 14:31:50;;;;;;;12.10;7.07;;;;;;;;;;5117872;28;20307;-73
2022/04/04 14:34:19;;;;;;;9.73;6.43;;;;;;;;;;5118023;28;20262;-73
2022/04/04 14:36:48;;;;;;;9.80;6.90;;;;;;;;;;5117911;28;20252;-73
2022/04/04 14:39:16;;;;;;;8.73;6.70;;;;;;;;;;5117789;28;20812;-73
2022/04/04 14:41:44;;;;;;;9.83;6.60;;;;;;;;;;5118166;28;20193;-73
2022/04/04 14:44:12;;;;;;;9.97;7.10;;;;;;;;;;5118567;28;20617;-73
2022/04/04 14:46:42;;;;;;;10.37;7.33;;;;;;;;;;5117813;28;20228;-73
2022/04/04 14:49:10;;;;;;;11.03;7.00;;;;;;;;;;5118086;28;20283;-74
2022/04/04 14:51:38;;;;;;;11.60;6.73;;;;;;;;;;5117719;28;20312;-74
2022/04/04 14:54:06;;;;;;;9.17;6.73;;;;;;;;;;5117817;28;20279;-74
2022/04/04 14:56:34;;;;;;;7.10;5.83;;;;;;;;;;5117994;28;20658;-73
2022/04/04 14:59:02;;;;;;;8.07;6.77;;;;;;;;;;5117684;28;20251;-73
2022/04/04 15:01:30;;;;;;;11.37;7.30;;;;;;;;;;5117795;28;20229;-73
2022/04/04 15:03:59;;;;;;;8.53;7.33;;;;;;;;;;5117570;28;20204;-73
2022/04/04 15:06:28;;;;;;;9.17;7.40;;;;;;;;;;5117705;28;20756;-73